Mount Wolf, Pennsylvania
Current Conditions -  °F | °C
As of 4:56 AM on Sunday 25 Jan 2015 (Local Time) from KMDT Reporting Station
Overcast Overcast  
Wind Chill: 28°   Ceiling: 5000
Heat Index: 37°   Visibility: 10mi
Dew Point: 27°   Wind: 14mph
Humidity: 67%   Direction: 270°W
Pressure: 29.68"   Gusts: 21mph
Location:  40.06°N, 76.7°W
Report Text: KMDT 250956Z 27012G18KT 10SM FEW036 BKN050 OVC250 03/M03 A2968 RMK AO2 SLP052 T00281028
Loading
Personal Weather Stations






























Interactive Weather Map New forecast layout! Learn more

10-Day Weather Forecast

Advertisements
Track Severe Weather on mobile